QFA2535 ROAH-VHHH
Flight info
| Callsign | QFA2535 |
|---|---|
| Flight time | 2h 16m |
| Altitude | 40000 |
| Route | GANJU Y576 LILRA Y573 SEDKU R595 APU A1 ELATO V522 ABBEY |
| Aircraft | A339/H-SADE1E2E3GHIJ3J5M1P2RWXY/LB2D1 |
Departure
| Time | 2026-04-19 04:06 |
|---|---|
| Airport | Naha International Airport (ROAH) |
Arrival
| Time | 2026-04-19 06:22 |
|---|---|
| Airport | Hong Kong International Airport (VHHH) |
| Time | Latitude | Longitude | Altitude | Speed | Heading |
|---|---|---|---|---|---|
| 2026-04-19 03:53 | 26.21205 | 127.64956 | 26 ft | 0 kts | 88° |
| 2026-04-19 04:00 | 26.21205 | 127.64944 | 26 ft | 10 kts | 89° |
| 2026-04-19 04:00 | 26.21203 | 127.64880 | 32 ft | 7 kts | 88° |
| 2026-04-19 04:01 | 26.21204 | 127.64828 | 27 ft | 4 kts | 97° |
| 2026-04-19 04:01 | 26.21220 | 127.64770 | 31 ft | 4 kts | 152° |
| 2026-04-19 04:01 | 26.21241 | 127.64761 | 31 ft | 0 kts | 178° |
| 2026-04-19 04:03 | 26.21208 | 127.64762 | 31 ft | 11 kts | 179° |
| 2026-04-19 04:03 | 26.21089 | 127.64765 | 28 ft | 23 kts | 179° |
| 2026-04-19 04:03 | 26.20893 | 127.64748 | 28 ft | 33 kts | 173° |
| 2026-04-19 04:03 | 26.20618 | 127.64757 | 28 ft | 48 kts | 178° |
| 2026-04-19 04:04 | 26.20240 | 127.64771 | 28 ft | 57 kts | 178° |
| 2026-04-19 04:04 | 26.19849 | 127.64789 | 28 ft | 55 kts | 176° |
| 2026-04-19 04:04 | 26.19477 | 127.64807 | 26 ft | 52 kts | 175° |
| 2026-04-19 04:04 | 26.19121 | 127.64829 | 26 ft | 52 kts | 179° |
| 2026-04-19 04:05 | 26.18751 | 127.64840 | 27 ft | 53 kts | 180° |
| 2026-04-19 04:05 | 26.18394 | 127.64855 | 27 ft | 50 kts | 177° |
| 2026-04-19 04:05 | 26.18249 | 127.64805 | 28 ft | 15 kts | 245° |
| 2026-04-19 04:05 | 26.18259 | 127.64673 | 25 ft | 15 kts | 307° |
| 2026-04-19 04:06 | 26.18505 | 127.64637 | 26 ft | 78 kts | 358° |
| 2026-04-19 04:06 | 26.19339 | 127.64589 | 29 ft | 157 kts | 358° |
| 2026-04-19 04:06 | 26.20550 | 127.64564 | 555 ft | 176 kts | 358° |
| 2026-04-19 04:06 | 26.21767 | 127.64534 | 1516 ft | 173 kts | 356° |
| 2026-04-19 04:07 | 26.22970 | 127.64474 | 2343 ft | 184 kts | 354° |
| 2026-04-19 04:07 | 26.24337 | 127.64392 | 2975 ft | 208 kts | 354° |
| 2026-04-19 04:07 | 26.25849 | 127.64256 | 3623 ft | 228 kts | 346° |
| 2026-04-19 04:07 | 26.27365 | 127.63548 | 4142 ft | 247 kts | 327° |
| 2026-04-19 04:08 | 26.28897 | 127.62534 | 4673 ft | 264 kts | 325° |
| 2026-04-19 04:08 | 26.30496 | 127.61447 | 5379 ft | 269 kts | 325° |
| 2026-04-19 04:08 | 26.32087 | 127.60380 | 6371 ft | 267 kts | 326° |
| 2026-04-19 04:08 | 26.33698 | 127.59316 | 7038 ft | 272 kts | 325° |
| 2026-04-19 04:09 | 26.35346 | 127.58242 | 7726 ft | 276 kts | 325° |
| 2026-04-19 04:09 | 26.37021 | 127.57157 | 8367 ft | 281 kts | 325° |
| 2026-04-19 04:09 | 26.38709 | 127.56038 | 9048 ft | 283 kts | 321° |
| 2026-04-19 04:09 | 26.40119 | 127.54538 | 9785 ft | 278 kts | 301° |
| 2026-04-19 04:10 | 26.40933 | 127.52626 | 10323 ft | 281 kts | 281° |
| 2026-04-19 04:10 | 26.41024 | 127.50406 | 10507 ft | 297 kts | 259° |
| 2026-04-19 04:10 | 26.40247 | 127.48213 | 10713 ft | 314 kts | 236° |
| 2026-04-19 04:10 | 26.38821 | 127.46348 | 11282 ft | 318 kts | 229° |
| 2026-04-19 04:11 | 26.37311 | 127.44531 | 11910 ft | 320 kts | 228° |
| 2026-04-19 04:11 | 26.35800 | 127.42687 | 12534 ft | 323 kts | 229° |
| 2026-04-19 04:11 | 26.34290 | 127.40815 | 13129 ft | 326 kts | 228° |
| 2026-04-19 04:11 | 26.32664 | 127.39027 | 13744 ft | 329 kts | 226° |
| 2026-04-19 04:12 | 26.31017 | 127.37237 | 14285 ft | 332 kts | 226° |
| 2026-04-19 04:12 | 26.29384 | 127.35452 | 14811 ft | 334 kts | 226° |
| 2026-04-19 04:12 | 26.27716 | 127.33623 | 15349 ft | 337 kts | 226° |
| 2026-04-19 04:12 | 26.26034 | 127.31779 | 15919 ft | 340 kts | 226° |
| 2026-04-19 04:13 | 26.24341 | 127.29925 | 16472 ft | 343 kts | 226° |
| 2026-04-19 04:13 | 26.22631 | 127.28053 | 17022 ft | 346 kts | 226° |
| 2026-04-19 04:13 | 26.20910 | 127.26169 | 17522 ft | 349 kts | 226° |
| 2026-04-19 04:13 | 26.19172 | 127.24268 | 18063 ft | 352 kts | 226° |
| 2026-04-19 04:14 | 26.17423 | 127.22357 | 18532 ft | 354 kts | 226° |
| 2026-04-19 04:14 | 26.15664 | 127.20437 | 19052 ft | 354 kts | 226° |
| 2026-04-19 04:14 | 26.13902 | 127.18507 | 19546 ft | 355 kts | 227° |
| 2026-04-19 04:14 | 26.12272 | 127.16421 | 20037 ft | 356 kts | 233° |
| 2026-04-19 04:15 | 26.10885 | 127.14141 | 20542 ft | 356 kts | 239° |
| 2026-04-19 04:15 | 26.09584 | 127.11785 | 21043 ft | 359 kts | 238° |
| 2026-04-19 04:15 | 26.08262 | 127.09421 | 21536 ft | 361 kts | 238° |
| 2026-04-19 04:15 | 26.06927 | 127.07052 | 22066 ft | 362 kts | 238° |
| 2026-04-19 04:16 | 26.05579 | 127.04670 | 22548 ft | 364 kts | 238° |
| 2026-04-19 04:16 | 26.04225 | 127.02279 | 23065 ft | 366 kts | 238° |
| 2026-04-19 04:16 | 26.02861 | 126.99872 | 23558 ft | 369 kts | 238° |
| 2026-04-19 04:16 | 26.01494 | 126.97458 | 24010 ft | 370 kts | 238° |
| 2026-04-19 04:17 | 26.00138 | 126.95068 | 24491 ft | 370 kts | 238° |
| 2026-04-19 04:17 | 25.98744 | 126.92609 | 24942 ft | 372 kts | 237° |
| 2026-04-19 04:17 | 25.97384 | 126.90211 | 25386 ft | 373 kts | 237° |
| 2026-04-19 04:17 | 25.95995 | 126.87765 | 25833 ft | 374 kts | 237° |
| 2026-04-19 04:18 | 25.94603 | 126.85316 | 26278 ft | 375 kts | 237° |
| 2026-04-19 04:18 | 25.93209 | 126.82863 | 26719 ft | 376 kts | 237° |
| 2026-04-19 04:18 | 25.91807 | 126.80398 | 27127 ft | 378 kts | 237° |
| 2026-04-19 04:18 | 25.90397 | 126.77919 | 27528 ft | 379 kts | 237° |
| 2026-04-19 04:19 | 25.88982 | 126.75434 | 27951 ft | 381 kts | 237° |
| 2026-04-19 04:19 | 25.87565 | 126.72946 | 28373 ft | 382 kts | 237° |
| 2026-04-19 04:19 | 25.86162 | 126.70433 | 28756 ft | 384 kts | 239° |
| 2026-04-19 04:19 | 25.84836 | 126.67857 | 29152 ft | 385 kts | 240° |
| 2026-04-19 04:20 | 25.83530 | 126.65246 | 29554 ft | 387 kts | 240° |
| 2026-04-19 04:20 | 25.82218 | 126.62631 | 29966 ft | 388 kts | 240° |
| 2026-04-19 04:20 | 25.80891 | 126.60013 | 30285 ft | 391 kts | 240° |
| 2026-04-19 04:20 | 25.79548 | 126.57383 | 30616 ft | 393 kts | 239° |
| 2026-04-19 04:21 | 25.78194 | 126.54744 | 30943 ft | 394 kts | 239° |
| 2026-04-19 04:21 | 25.76832 | 126.52094 | 31275 ft | 396 kts | 239° |
| 2026-04-19 04:21 | 25.75460 | 126.49430 | 31575 ft | 399 kts | 239° |
| 2026-04-19 04:21 | 25.74079 | 126.46750 | 31885 ft | 401 kts | 239° |
| 2026-04-19 04:22 | 25.72693 | 126.44059 | 32185 ft | 403 kts | 239° |
| 2026-04-19 04:22 | 25.71317 | 126.41388 | 32457 ft | 405 kts | 239° |
| 2026-04-19 04:22 | 25.69917 | 126.38675 | 32680 ft | 407 kts | 239° |
| 2026-04-19 04:22 | 25.68502 | 126.35933 | 32895 ft | 408 kts | 239° |
| 2026-04-19 04:23 | 25.67091 | 126.33199 | 33078 ft | 410 kts | 240° |
| 2026-04-19 04:23 | 25.65673 | 126.30456 | 33267 ft | 411 kts | 240° |
| 2026-04-19 04:23 | 25.64249 | 126.27702 | 33384 ft | 412 kts | 240° |
| 2026-04-19 04:23 | 25.62820 | 126.24938 | 33546 ft | 412 kts | 240° |
| 2026-04-19 04:24 | 25.61395 | 126.22185 | 33736 ft | 412 kts | 240° |
| 2026-04-19 04:24 | 25.59971 | 126.19435 | 33923 ft | 411 kts | 240° |
| 2026-04-19 04:24 | 25.58563 | 126.16718 | 34068 ft | 412 kts | 240° |
| 2026-04-19 04:24 | 25.57139 | 126.13972 | 34208 ft | 411 kts | 240° |
| 2026-04-19 04:25 | 25.55711 | 126.11220 | 34367 ft | 411 kts | 240° |
| 2026-04-19 04:25 | 25.54284 | 126.08471 | 34516 ft | 411 kts | 240° |
| 2026-04-19 04:25 | 25.52860 | 126.05731 | 34657 ft | 411 kts | 240° |
| 2026-04-19 04:25 | 25.51435 | 126.02990 | 34798 ft | 411 kts | 240° |
| 2026-04-19 04:26 | 25.50008 | 126.00246 | 34959 ft | 410 kts | 240° |
| 2026-04-19 04:26 | 25.48585 | 125.97510 | 35106 ft | 410 kts | 240° |
| 2026-04-19 04:26 | 25.47160 | 125.94774 | 35254 ft | 410 kts | 240° |
| 2026-04-19 04:26 | 25.45733 | 125.92035 | 35400 ft | 410 kts | 240° |
| 2026-04-19 04:27 | 25.44308 | 125.89301 | 35570 ft | 410 kts | 240° |
| 2026-04-19 04:27 | 25.42883 | 125.86568 | 35733 ft | 410 kts | 240° |
| 2026-04-19 04:27 | 25.41459 | 125.83842 | 35875 ft | 410 kts | 240° |
| 2026-04-19 04:27 | 25.40044 | 125.81134 | 36033 ft | 410 kts | 240° |
| 2026-04-19 04:28 | 25.38618 | 125.78407 | 36228 ft | 409 kts | 240° |
| 2026-04-19 04:28 | 25.37190 | 125.75679 | 36388 ft | 409 kts | 240° |
| 2026-04-19 04:28 | 25.35763 | 125.72953 | 36542 ft | 409 kts | 240° |
| 2026-04-19 04:28 | 25.34335 | 125.70231 | 36728 ft | 409 kts | 239° |
| 2026-04-19 04:29 | 25.32894 | 125.67520 | 36919 ft | 409 kts | 239° |
| 2026-04-19 04:29 | 25.31468 | 125.64850 | 37091 ft | 408 kts | 239° |
| 2026-04-19 04:29 | 25.30024 | 125.62149 | 37273 ft | 408 kts | 239° |
| 2026-04-19 04:29 | 25.28580 | 125.59446 | 37456 ft | 408 kts | 239° |
| 2026-04-19 04:30 | 25.27135 | 125.56739 | 37649 ft | 408 kts | 239° |
| 2026-04-19 04:30 | 25.25695 | 125.54044 | 37825 ft | 407 kts | 239° |
| 2026-04-19 04:30 | 25.24257 | 125.51352 | 38004 ft | 408 kts | 239° |
| 2026-04-19 04:30 | 25.23282 | 125.49527 | 38117 ft | 407 kts | 239° |
| 2026-04-19 04:31 | 25.21863 | 125.46872 | 38302 ft | 407 kts | 239° |
| 2026-04-19 04:31 | 25.20422 | 125.44179 | 38483 ft | 407 kts | 239° |
| 2026-04-19 04:31 | 25.18983 | 125.41492 | 38654 ft | 406 kts | 239° |
| 2026-04-19 04:31 | 25.17544 | 125.38805 | 38786 ft | 407 kts | 239° |
| 2026-04-19 04:32 | 25.16105 | 125.36119 | 38924 ft | 406 kts | 239° |
| 2026-04-19 04:32 | 25.14668 | 125.33439 | 39081 ft | 406 kts | 239° |
| 2026-04-19 04:32 | 25.13228 | 125.30756 | 39205 ft | 406 kts | 239° |
| 2026-04-19 04:32 | 25.11787 | 125.28070 | 39329 ft | 406 kts | 239° |
| 2026-04-19 04:33 | 25.10318 | 125.25411 | 39461 ft | 406 kts | 237° |
| 2026-04-19 04:33 | 25.08696 | 125.22852 | 39592 ft | 406 kts | 234° |
| 2026-04-19 04:33 | 25.06990 | 125.20368 | 39710 ft | 406 kts | 234° |
| 2026-04-19 04:33 | 25.05286 | 125.17872 | 39817 ft | 406 kts | 234° |
| 2026-04-19 04:34 | 25.03588 | 125.15376 | 39941 ft | 406 kts | 234° |
| 2026-04-19 04:34 | 25.01893 | 125.12882 | 39949 ft | 406 kts | 234° |
| 2026-04-19 04:34 | 24.98515 | 125.07957 | 39944 ft | 406 kts | 232° |
| 2026-04-19 04:35 | 24.94926 | 125.03147 | 39949 ft | 406 kts | 231° |
| 2026-04-19 04:35 | 24.91317 | 124.98345 | 39939 ft | 407 kts | 232° |
| 2026-04-19 04:36 | 24.87784 | 124.93474 | 39944 ft | 406 kts | 236° |
| 2026-04-19 04:36 | 24.85232 | 124.87930 | 39945 ft | 407 kts | 249° |
| 2026-04-19 04:37 | 24.84063 | 124.81805 | 39946 ft | 413 kts | 262° |
| 2026-04-19 04:37 | 24.84351 | 124.75443 | 39952 ft | 420 kts | 273° |
| 2026-04-19 04:38 | 24.85156 | 124.69113 | 39948 ft | 420 kts | 272° |
| 2026-04-19 04:38 | 24.85926 | 124.62739 | 39952 ft | 420 kts | 272° |
| 2026-04-19 04:39 | 24.86690 | 124.56361 | 39959 ft | 420 kts | 272° |
| 2026-04-19 04:39 | 24.87453 | 124.49983 | 39959 ft | 420 kts | 272° |
| 2026-04-19 04:40 | 24.88216 | 124.43600 | 39961 ft | 420 kts | 272° |
| 2026-04-19 04:40 | 24.88973 | 124.37233 | 39972 ft | 420 kts | 272° |
| 2026-04-19 04:41 | 24.89728 | 124.30854 | 39976 ft | 419 kts | 272° |
| 2026-04-19 04:41 | 24.90475 | 124.24525 | 39970 ft | 419 kts | 272° |
| 2026-04-19 04:42 | 24.91225 | 124.18146 | 39970 ft | 419 kts | 272° |
| 2026-04-19 04:42 | 24.91970 | 124.11775 | 39971 ft | 419 kts | 272° |
| 2026-04-19 04:43 | 24.92713 | 124.05408 | 39975 ft | 419 kts | 272° |
| 2026-04-19 04:43 | 24.93452 | 123.99041 | 39974 ft | 419 kts | 272° |
| 2026-04-19 04:44 | 24.94135 | 123.92673 | 39975 ft | 418 kts | 271° |
| 2026-04-19 04:44 | 24.94798 | 123.86313 | 39974 ft | 418 kts | 271° |
| 2026-04-19 04:45 | 24.95463 | 123.79990 | 39973 ft | 418 kts | 271° |
| 2026-04-19 04:45 | 24.96131 | 123.73634 | 39974 ft | 417 kts | 271° |
| 2026-04-19 04:46 | 24.96800 | 123.67281 | 40035 ft | 415 kts | 270° |
| 2026-04-19 04:46 | 24.97454 | 123.61062 | 39972 ft | 406 kts | 270° |
| 2026-04-19 04:47 | 24.98092 | 123.54848 | 39981 ft | 409 kts | 270° |
| 2026-04-19 04:47 | 24.98737 | 123.48614 | 39972 ft | 409 kts | 270° |
| 2026-04-19 04:48 | 24.99375 | 123.42425 | 39979 ft | 409 kts | 270° |
| 2026-04-19 04:48 | 25.00014 | 123.36195 | 39977 ft | 409 kts | 270° |
| 2026-04-19 04:49 | 25.00652 | 123.29958 | 39976 ft | 409 kts | 270° |
| 2026-04-19 04:49 | 25.01286 | 123.23729 | 39980 ft | 409 kts | 270° |
| 2026-04-19 04:50 | 25.01918 | 123.17494 | 39978 ft | 409 kts | 270° |
| 2026-04-19 04:50 | 25.02545 | 123.11264 | 39982 ft | 409 kts | 270° |
| 2026-04-19 04:51 | 25.03169 | 123.05034 | 39975 ft | 409 kts | 270° |
| 2026-04-19 04:51 | 25.03788 | 122.98830 | 39975 ft | 409 kts | 270° |
| 2026-04-19 04:52 | 25.04410 | 122.92592 | 39980 ft | 409 kts | 270° |
| 2026-04-19 04:52 | 25.05030 | 122.86353 | 39982 ft | 409 kts | 270° |
| 2026-04-19 04:53 | 25.05648 | 122.80109 | 39981 ft | 409 kts | 270° |
| 2026-04-19 04:53 | 25.06263 | 122.73869 | 39982 ft | 409 kts | 270° |
| 2026-04-19 04:54 | 25.06875 | 122.67628 | 39985 ft | 409 kts | 270° |
| 2026-04-19 04:54 | 25.07484 | 122.61386 | 39986 ft | 409 kts | 270° |
| 2026-04-19 04:55 | 25.08091 | 122.55143 | 39983 ft | 409 kts | 270° |
| 2026-04-19 04:55 | 25.08695 | 122.48902 | 39983 ft | 409 kts | 270° |
| 2026-04-19 04:56 | 25.09259 | 122.43053 | 39983 ft | 409 kts | 270° |
| 2026-04-19 04:56 | 25.09858 | 122.36812 | 39980 ft | 409 kts | 270° |
| 2026-04-19 04:57 | 25.10455 | 122.30580 | 39987 ft | 409 kts | 271° |
| 2026-04-19 04:57 | 25.11025 | 122.24348 | 39984 ft | 408 kts | 270° |
| 2026-04-19 04:58 | 25.11538 | 122.18104 | 39986 ft | 408 kts | 270° |
| 2026-04-19 04:58 | 25.12055 | 122.11872 | 39989 ft | 408 kts | 270° |
| 2026-04-19 04:59 | 25.12575 | 122.05634 | 39984 ft | 408 kts | 270° |
| 2026-04-19 04:59 | 25.13106 | 121.99443 | 39992 ft | 408 kts | 270° |
| 2026-04-19 05:00 | 25.13698 | 121.93207 | 39985 ft | 408 kts | 271° |
| 2026-04-19 05:00 | 25.14326 | 121.86977 | 39960 ft | 408 kts | 271° |
| 2026-04-19 05:01 | 25.14939 | 121.80745 | 39958 ft | 408 kts | 271° |
| 2026-04-19 05:01 | 25.15544 | 121.74513 | 39955 ft | 409 kts | 271° |
| 2026-04-19 05:02 | 25.16147 | 121.68274 | 39953 ft | 409 kts | 271° |
| 2026-04-19 05:02 | 25.16740 | 121.62033 | 39948 ft | 407 kts | 270° |
| 2026-04-19 05:03 | 25.16492 | 121.55881 | 39951 ft | 398 kts | 257° |
| 2026-04-19 05:03 | 25.14867 | 121.50053 | 39948 ft | 398 kts | 245° |
| 2026-04-19 05:04 | 25.12010 | 121.44871 | 39951 ft | 400 kts | 233° |
| 2026-04-19 05:04 | 25.08382 | 121.40201 | 39946 ft | 401 kts | 232° |
| 2026-04-19 05:05 | 25.04766 | 121.35508 | 39972 ft | 401 kts | 232° |
| 2026-04-19 05:05 | 25.01142 | 121.30811 | 39959 ft | 402 kts | 232° |
| 2026-04-19 05:06 | 24.97511 | 121.26116 | 39977 ft | 402 kts | 232° |
| 2026-04-19 05:06 | 24.93875 | 121.21423 | 39968 ft | 403 kts | 232° |
| 2026-04-19 05:07 | 24.90238 | 121.16731 | 39969 ft | 403 kts | 231° |
| 2026-04-19 05:07 | 24.86591 | 121.12029 | 39968 ft | 403 kts | 231° |
| 2026-04-19 05:08 | 24.81116 | 121.04982 | 39970 ft | 404 kts | 232° |
| 2026-04-19 05:09 | 24.77492 | 121.00316 | 39968 ft | 404 kts | 231° |
| 2026-04-19 05:09 | 24.73835 | 120.95615 | 39977 ft | 404 kts | 231° |
| 2026-04-19 05:10 | 24.70177 | 120.90916 | 39975 ft | 404 kts | 232° |
| 2026-04-19 05:10 | 24.66521 | 120.86227 | 39976 ft | 404 kts | 232° |
| 2026-04-19 05:11 | 24.62861 | 120.81535 | 39977 ft | 404 kts | 231° |
| 2026-04-19 05:11 | 24.59200 | 120.76849 | 39976 ft | 404 kts | 232° |
| 2026-04-19 05:12 | 24.55519 | 120.72188 | 39970 ft | 405 kts | 230° |
| 2026-04-19 05:12 | 24.51607 | 120.67730 | 39972 ft | 405 kts | 229° |
| 2026-04-19 05:13 | 24.47698 | 120.63271 | 39973 ft | 405 kts | 229° |
| 2026-04-19 05:13 | 24.43786 | 120.58809 | 39973 ft | 405 kts | 229° |
| 2026-04-19 05:14 | 24.39903 | 120.54388 | 39970 ft | 405 kts | 229° |
| 2026-04-19 05:14 | 24.35997 | 120.49938 | 39971 ft | 405 kts | 229° |
| 2026-04-19 05:15 | 24.32089 | 120.45491 | 39970 ft | 405 kts | 229° |
| 2026-04-19 05:15 | 24.28177 | 120.41048 | 39970 ft | 405 kts | 229° |
| 2026-04-19 05:16 | 24.24264 | 120.36606 | 39969 ft | 405 kts | 229° |
| 2026-04-19 05:16 | 24.21010 | 120.32913 | 39967 ft | 405 kts | 229° |
| 2026-04-19 05:17 | 24.17096 | 120.28469 | 39962 ft | 405 kts | 229° |
| 2026-04-19 05:17 | 24.13176 | 120.24031 | 39956 ft | 405 kts | 229° |
| 2026-04-19 05:18 | 24.09255 | 120.19596 | 39956 ft | 405 kts | 229° |
| 2026-04-19 05:18 | 24.05333 | 120.15164 | 39954 ft | 405 kts | 229° |
| 2026-04-19 05:19 | 24.01409 | 120.10734 | 39958 ft | 405 kts | 229° |
| 2026-04-19 05:19 | 23.97484 | 120.06306 | 39950 ft | 405 kts | 229° |
| 2026-04-19 05:20 | 23.93554 | 120.01879 | 39952 ft | 406 kts | 229° |
| 2026-04-19 05:20 | 23.89621 | 119.97452 | 39954 ft | 406 kts | 229° |
| 2026-04-19 05:21 | 23.85710 | 119.93054 | 39964 ft | 406 kts | 229° |
| 2026-04-19 05:21 | 23.81771 | 119.88630 | 39961 ft | 406 kts | 229° |
| 2026-04-19 05:22 | 23.77825 | 119.84201 | 39963 ft | 406 kts | 229° |
| 2026-04-19 05:22 | 23.73881 | 119.79778 | 39955 ft | 407 kts | 229° |
| 2026-04-19 05:23 | 23.69934 | 119.75355 | 39970 ft | 407 kts | 229° |
| 2026-04-19 05:23 | 23.65979 | 119.70929 | 39963 ft | 407 kts | 229° |
| 2026-04-19 05:24 | 23.62027 | 119.66503 | 39974 ft | 407 kts | 230° |
| 2026-04-19 05:24 | 23.58442 | 119.61755 | 39958 ft | 405 kts | 236° |
| 2026-04-19 05:25 | 23.55404 | 119.56596 | 39956 ft | 404 kts | 239° |
| 2026-04-19 05:25 | 23.52408 | 119.51400 | 39953 ft | 405 kts | 239° |
| 2026-04-19 05:26 | 23.49421 | 119.46251 | 39974 ft | 405 kts | 239° |
| 2026-04-19 05:26 | 23.46411 | 119.41068 | 39973 ft | 405 kts | 239° |
| 2026-04-19 05:27 | 23.43395 | 119.35878 | 39962 ft | 405 kts | 239° |
| 2026-04-19 05:27 | 23.40381 | 119.30699 | 39945 ft | 405 kts | 239° |
| 2026-04-19 05:28 | 23.37364 | 119.25518 | 39962 ft | 405 kts | 239° |
| 2026-04-19 05:28 | 23.34344 | 119.20336 | 39958 ft | 405 kts | 239° |
| 2026-04-19 05:29 | 23.31319 | 119.15154 | 39961 ft | 405 kts | 239° |
| 2026-04-19 05:29 | 23.28294 | 119.09975 | 39961 ft | 406 kts | 239° |
| 2026-04-19 05:30 | 23.25283 | 119.04825 | 39961 ft | 406 kts | 239° |
| 2026-04-19 05:30 | 23.22254 | 118.99651 | 39964 ft | 406 kts | 239° |
| 2026-04-19 05:31 | 23.19222 | 118.94477 | 39965 ft | 406 kts | 239° |
| 2026-04-19 05:31 | 23.16183 | 118.89294 | 39962 ft | 406 kts | 239° |
| 2026-04-19 05:32 | 23.13147 | 118.84123 | 39963 ft | 406 kts | 239° |
| 2026-04-19 05:32 | 23.10105 | 118.78947 | 39962 ft | 406 kts | 239° |
| 2026-04-19 05:33 | 23.07078 | 118.73803 | 39962 ft | 406 kts | 239° |
| 2026-04-19 05:33 | 23.04030 | 118.68627 | 39964 ft | 406 kts | 239° |
| 2026-04-19 05:34 | 23.00979 | 118.63450 | 39963 ft | 406 kts | 239° |
| 2026-04-19 05:34 | 22.97930 | 118.58282 | 39963 ft | 407 kts | 239° |
| 2026-04-19 05:35 | 22.94895 | 118.53143 | 39962 ft | 407 kts | 239° |
| 2026-04-19 05:35 | 22.91809 | 118.47954 | 39964 ft | 407 kts | 239° |
| 2026-04-19 05:36 | 22.88755 | 118.42826 | 39963 ft | 407 kts | 239° |
| 2026-04-19 05:36 | 22.85675 | 118.37658 | 39962 ft | 407 kts | 239° |
| 2026-04-19 05:37 | 22.82601 | 118.32504 | 39962 ft | 407 kts | 239° |
| 2026-04-19 05:37 | 22.79520 | 118.27341 | 39959 ft | 408 kts | 239° |
| 2026-04-19 05:38 | 22.76456 | 118.22214 | 39959 ft | 408 kts | 239° |
| 2026-04-19 05:38 | 22.73370 | 118.17053 | 39964 ft | 408 kts | 239° |
| 2026-04-19 05:39 | 22.70281 | 118.11894 | 39963 ft | 408 kts | 239° |
| 2026-04-19 05:39 | 22.67186 | 118.06730 | 39964 ft | 408 kts | 239° |
| 2026-04-19 05:40 | 22.64094 | 118.01576 | 39962 ft | 408 kts | 239° |
| 2026-04-19 05:40 | 22.60997 | 117.96416 | 39958 ft | 409 kts | 239° |
| 2026-04-19 05:41 | 22.57911 | 117.91250 | 39959 ft | 409 kts | 239° |
| 2026-04-19 05:41 | 22.54840 | 117.86069 | 39960 ft | 409 kts | 239° |
| 2026-04-19 05:42 | 22.51762 | 117.80888 | 39964 ft | 409 kts | 239° |
| 2026-04-19 05:42 | 22.48680 | 117.75710 | 39961 ft | 410 kts | 239° |
| 2026-04-19 05:43 | 22.45615 | 117.70567 | 39960 ft | 410 kts | 239° |
| 2026-04-19 05:43 | 22.42525 | 117.65388 | 39960 ft | 410 kts | 239° |
| 2026-04-19 05:44 | 22.39434 | 117.60211 | 39959 ft | 410 kts | 239° |
| 2026-04-19 05:44 | 22.36386 | 117.54996 | 39958 ft | 409 kts | 243° |
| 2026-04-19 05:45 | 22.34210 | 117.49335 | 39954 ft | 409 kts | 253° |
| 2026-04-19 05:45 | 22.33217 | 117.43282 | 39957 ft | 411 kts | 264° |
| 2026-04-19 05:46 | 22.33108 | 117.37136 | 39959 ft | 412 kts | 266° |
| 2026-04-19 05:46 | 22.33001 | 117.30952 | 39959 ft | 412 kts | 266° |
| 2026-04-19 05:47 | 22.32884 | 117.24752 | 39962 ft | 412 kts | 266° |
| 2026-04-19 05:47 | 22.32767 | 117.18561 | 39963 ft | 412 kts | 266° |
| 2026-04-19 05:48 | 22.32648 | 117.12361 | 39964 ft | 412 kts | 266° |
| 2026-04-19 05:48 | 22.32527 | 117.06205 | 39961 ft | 412 kts | 266° |
| 2026-04-19 05:49 | 22.32403 | 117.00007 | 39957 ft | 412 kts | 266° |
| 2026-04-19 05:49 | 22.32277 | 116.93815 | 39956 ft | 413 kts | 266° |
| 2026-04-19 05:50 | 22.32148 | 116.87617 | 39956 ft | 413 kts | 267° |
| 2026-04-19 05:50 | 22.32018 | 116.81404 | 39958 ft | 413 kts | 267° |
| 2026-04-19 05:51 | 22.31885 | 116.75232 | 39959 ft | 413 kts | 267° |
| 2026-04-19 05:51 | 22.31749 | 116.69021 | 39955 ft | 413 kts | 267° |
| 2026-04-19 05:52 | 22.31611 | 116.62821 | 39959 ft | 413 kts | 267° |
| 2026-04-19 05:52 | 22.31468 | 116.56620 | 39955 ft | 413 kts | 267° |
| 2026-04-19 05:53 | 22.31327 | 116.50439 | 39954 ft | 413 kts | 267° |
| 2026-04-19 05:53 | 22.31183 | 116.44232 | 39955 ft | 414 kts | 267° |
| 2026-04-19 05:54 | 22.31036 | 116.38014 | 39954 ft | 414 kts | 267° |
| 2026-04-19 05:54 | 22.30886 | 116.31799 | 39953 ft | 414 kts | 267° |
| 2026-04-19 05:55 | 22.30733 | 116.25577 | 39950 ft | 414 kts | 267° |
| 2026-04-19 05:55 | 22.30578 | 116.19356 | 39948 ft | 414 kts | 267° |
| 2026-04-19 05:56 | 22.30421 | 116.13138 | 39951 ft | 415 kts | 267° |
| 2026-04-19 05:56 | 22.30261 | 116.06910 | 39947 ft | 415 kts | 267° |
| 2026-04-19 05:57 | 22.30100 | 116.00725 | 39948 ft | 415 kts | 267° |
| 2026-04-19 05:57 | 22.29935 | 115.94486 | 39948 ft | 415 kts | 267° |
| 2026-04-19 05:58 | 22.29768 | 115.88256 | 39949 ft | 415 kts | 267° |
| 2026-04-19 05:58 | 22.29600 | 115.82026 | 39945 ft | 415 kts | 267° |
| 2026-04-19 05:59 | 22.29434 | 115.75790 | 39946 ft | 415 kts | 267° |
| 2026-04-19 05:59 | 22.29269 | 115.69554 | 39947 ft | 415 kts | 267° |
| 2026-04-19 06:00 | 22.29102 | 115.63336 | 39375 ft | 414 kts | 267° |
| 2026-04-19 06:00 | 22.29017 | 115.60251 | 38489 ft | 419 kts | 267° |
| 2026-04-19 06:00 | 22.28927 | 115.57071 | 37143 ft | 428 kts | 268° |
| 2026-04-19 06:00 | 22.28836 | 115.53834 | 35832 ft | 433 kts | 268° |
| 2026-04-19 06:01 | 22.28744 | 115.50567 | 34545 ft | 437 kts | 268° |
| 2026-04-19 06:01 | 22.28651 | 115.47270 | 33117 ft | 441 kts | 269° |
| 2026-04-19 06:01 | 22.28557 | 115.43937 | 31508 ft | 448 kts | 269° |
| 2026-04-19 06:01 | 22.28461 | 115.40551 | 29824 ft | 456 kts | 269° |
| 2026-04-19 06:02 | 22.28363 | 115.37107 | 28333 ft | 459 kts | 269° |
| 2026-04-19 06:02 | 22.28265 | 115.33672 | 27277 ft | 456 kts | 269° |
| 2026-04-19 06:02 | 22.28165 | 115.30256 | 26384 ft | 453 kts | 269° |
| 2026-04-19 06:02 | 22.28061 | 115.26862 | 25474 ft | 451 kts | 269° |
| 2026-04-19 06:03 | 22.27957 | 115.23480 | 24567 ft | 450 kts | 269° |
| 2026-04-19 06:03 | 22.27852 | 115.20105 | 23696 ft | 449 kts | 268° |
| 2026-04-19 06:03 | 22.27748 | 115.16779 | 22853 ft | 445 kts | 269° |
| 2026-04-19 06:03 | 22.27643 | 115.13468 | 22043 ft | 439 kts | 269° |
| 2026-04-19 06:04 | 22.27539 | 115.10190 | 21229 ft | 434 kts | 269° |
| 2026-04-19 06:04 | 22.27435 | 115.06956 | 20420 ft | 429 kts | 269° |
| 2026-04-19 06:04 | 22.27334 | 115.03754 | 19613 ft | 424 kts | 269° |
| 2026-04-19 06:04 | 22.27232 | 115.00585 | 18812 ft | 420 kts | 269° |
| 2026-04-19 06:05 | 22.27130 | 114.97449 | 17995 ft | 416 kts | 269° |
| 2026-04-19 06:05 | 22.27030 | 114.94350 | 17172 ft | 409 kts | 269° |
| 2026-04-19 06:05 | 22.26966 | 114.92318 | 16610 ft | 406 kts | 269° |
| 2026-04-19 06:05 | 22.26870 | 114.89302 | 15763 ft | 400 kts | 268° |
| 2026-04-19 06:06 | 22.26772 | 114.86318 | 14948 ft | 394 kts | 268° |
| 2026-04-19 06:06 | 22.26676 | 114.83385 | 14136 ft | 388 kts | 268° |
| 2026-04-19 06:06 | 22.26579 | 114.80485 | 13271 ft | 383 kts | 268° |
| 2026-04-19 06:06 | 22.26382 | 114.77631 | 12334 ft | 379 kts | 262° |
| 2026-04-19 06:07 | 22.25874 | 114.74859 | 11428 ft | 375 kts | 257° |
| 2026-04-19 06:07 | 22.25319 | 114.72142 | 10880 ft | 362 kts | 258° |
| 2026-04-19 06:07 | 22.24806 | 114.69595 | 10563 ft | 333 kts | 258° |
| 2026-04-19 06:07 | 22.24329 | 114.67207 | 9827 ft | 321 kts | 258° |
| 2026-04-19 06:08 | 22.23863 | 114.64865 | 9043 ft | 314 kts | 258° |
| 2026-04-19 06:08 | 22.23409 | 114.62588 | 8777 ft | 318 kts | 258° |
| 2026-04-19 06:08 | 22.22942 | 114.60244 | 8561 ft | 319 kts | 258° |
| 2026-04-19 06:08 | 22.22478 | 114.57914 | 8318 ft | 316 kts | 258° |
| 2026-04-19 06:09 | 22.22028 | 114.55655 | 8183 ft | 299 kts | 258° |
| 2026-04-19 06:09 | 22.21604 | 114.53537 | 8003 ft | 277 kts | 258° |
| 2026-04-19 06:09 | 22.21208 | 114.51557 | 7493 ft | 266 kts | 258° |
| 2026-04-19 06:09 | 22.20826 | 114.49650 | 7183 ft | 257 kts | 259° |
| 2026-04-19 06:10 | 22.20440 | 114.47708 | 6973 ft | 268 kts | 259° |
| 2026-04-19 06:10 | 22.20050 | 114.45750 | 6713 ft | 265 kts | 259° |
| 2026-04-19 06:10 | 22.19662 | 114.43818 | 6451 ft | 263 kts | 259° |
| 2026-04-19 06:10 | 22.19367 | 114.41880 | 6176 ft | 261 kts | 271° |
| 2026-04-19 06:11 | 22.19755 | 114.39992 | 5929 ft | 259 kts | 297° |
| 2026-04-19 06:11 | 22.20890 | 114.38508 | 5842 ft | 260 kts | 322° |
| 2026-04-19 06:11 | 22.22524 | 114.37678 | 5727 ft | 260 kts | 343° |
| 2026-04-19 06:12 | 22.26071 | 114.36874 | 5479 ft | 260 kts | 347° |
| 2026-04-19 06:12 | 22.27822 | 114.36404 | 5366 ft | 256 kts | 344° |
| 2026-04-19 06:12 | 22.29476 | 114.35872 | 5282 ft | 244 kts | 342° |
| 2026-04-19 06:12 | 22.31050 | 114.35314 | 5055 ft | 234 kts | 341° |
| 2026-04-19 06:13 | 22.32568 | 114.34749 | 4974 ft | 235 kts | 341° |
| 2026-04-19 06:13 | 22.34134 | 114.34162 | 4891 ft | 238 kts | 340° |
| 2026-04-19 06:13 | 22.35686 | 114.33580 | 4771 ft | 235 kts | 341° |
| 2026-04-19 06:13 | 22.37239 | 114.32998 | 4650 ft | 237 kts | 341° |
| 2026-04-19 06:14 | 22.38773 | 114.32388 | 4541 ft | 234 kts | 335° |
| 2026-04-19 06:14 | 22.39992 | 114.31314 | 4496 ft | 219 kts | 306° |
| 2026-04-19 06:14 | 22.40589 | 114.29889 | 4488 ft | 201 kts | 283° |
| 2026-04-19 06:14 | 22.40787 | 114.28433 | 4504 ft | 196 kts | 278° |
| 2026-04-19 06:15 | 22.40999 | 114.26965 | 4494 ft | 196 kts | 280° |
| 2026-04-19 06:15 | 22.41062 | 114.25524 | 4495 ft | 197 kts | 263° |
| 2026-04-19 06:15 | 22.40668 | 114.24102 | 4488 ft | 198 kts | 250° |
| 2026-04-19 06:15 | 22.40198 | 114.22738 | 4483 ft | 189 kts | 250° |
| 2026-04-19 06:16 | 22.39751 | 114.21395 | 4491 ft | 193 kts | 251° |
| 2026-04-19 06:16 | 22.39303 | 114.19997 | 4483 ft | 198 kts | 251° |
| 2026-04-19 06:16 | 22.38856 | 114.18596 | 4481 ft | 197 kts | 251° |
| 2026-04-19 06:16 | 22.38406 | 114.17189 | 4413 ft | 199 kts | 251° |
| 2026-04-19 06:17 | 22.37954 | 114.15777 | 4178 ft | 199 kts | 251° |
| 2026-04-19 06:17 | 22.37501 | 114.14360 | 3915 ft | 199 kts | 251° |
| 2026-04-19 06:17 | 22.37054 | 114.12959 | 3677 ft | 201 kts | 250° |
| 2026-04-19 06:17 | 22.36592 | 114.11523 | 3413 ft | 204 kts | 250° |
| 2026-04-19 06:18 | 22.36127 | 114.10070 | 3153 ft | 205 kts | 250° |
| 2026-04-19 06:18 | 22.35657 | 114.08605 | 2854 ft | 199 kts | 249° |
| 2026-04-19 06:18 | 22.35223 | 114.07241 | 2606 ft | 189 kts | 249° |
| 2026-04-19 06:18 | 22.34804 | 114.05939 | 2386 ft | 179 kts | 249° |
| 2026-04-19 06:19 | 22.34415 | 114.04719 | 2148 ft | 164 kts | 248° |
| 2026-04-19 06:19 | 22.34061 | 114.03593 | 1934 ft | 152 kts | 248° |
| 2026-04-19 06:19 | 22.33714 | 114.02542 | 1747 ft | 150 kts | 247° |
| 2026-04-19 06:19 | 22.33379 | 114.01498 | 1568 ft | 144 kts | 248° |
| 2026-04-19 06:20 | 22.33046 | 114.00460 | 1379 ft | 147 kts | 247° |
| 2026-04-19 06:20 | 22.32724 | 113.99454 | 1187 ft | 140 kts | 248° |
| 2026-04-19 06:20 | 22.32398 | 113.98447 | 1028 ft | 145 kts | 249° |
| 2026-04-19 06:20 | 22.32078 | 113.97440 | 830 ft | 133 kts | 249° |
| 2026-04-19 06:21 | 22.31751 | 113.96422 | 664 ft | 144 kts | 249° |
| 2026-04-19 06:21 | 22.31431 | 113.95425 | 478 ft | 144 kts | 249° |
| 2026-04-19 06:21 | 22.31101 | 113.94421 | 250 ft | 142 kts | 248° |
| 2026-04-19 06:21 | 22.30793 | 113.93450 | 94 ft | 132 kts | 250° |
| 2026-04-19 06:22 | 22.30504 | 113.92557 | 42 ft | 104 kts | 250° |
| 2026-04-19 06:22 | 22.30319 | 113.91971 | 40 ft | 74 kts | 251° |
| 2026-04-19 06:22 | 22.30155 | 113.91470 | 43 ft | 67 kts | 250° |
| 2026-04-19 06:22 | 22.30121 | 113.91072 | 43 ft | 40 kts | 287° |
| 2026-04-19 06:23 | 22.30150 | 113.90810 | 42 ft | 23 kts | 246° |
| 2026-04-19 06:23 | 22.30083 | 113.90653 | 42 ft | 23 kts | 261° |
| 2026-04-19 06:23 | 22.30155 | 113.90573 | 42 ft | 14 kts | 4° |
| 2026-04-19 06:23 | 22.30303 | 113.90602 | 41 ft | 29 kts | 12° |
| 2026-04-19 06:24 | 22.30509 | 113.90598 | 40 ft | 31 kts | 346° |
| 2026-04-19 06:24 | 22.30636 | 113.90630 | 38 ft | 16 kts | 48° |
| 2026-04-19 06:24 | 22.30654 | 113.90664 | 39 ft | 0 kts | 65° |